Latest Weather Observations for Mount Nowa Nowa

IDV60801

Issued at 7:05 pm EST Wednesday 23 April 2014 (issued every 30 minutes, with the page automatically refreshed every 10 minutes)

About weather observations | Map of weather stations | Latest weather observations for VIC | Other Formats
Station Details ID: 084144 Name: MOUNT NOWA NOWA Lat: -37.69 Lon: 148.09 Height: 350.0 m
Data from the previous 72 hours. | See also: Recent months at Mount Nowa Nowa
Date/Time
EST
Temp
°C
App
Temp
°C
Dew
Point
Rel
Hum
%
Delta-T
°C
Wind Press
QNH
hPa
Press
MSL
hPa
Rain
since 9 am
mm
Dir
 
Spd
km/h
Gust
km/h
Spd
kts
Gust
kts
23/07:00pm 13.4 13.7 10.9 85 1.3 NW 0 0 0 0 - - 0.0
23/06:30pm 13.5 14.3 12.4 93 0.6 NE 0 0 0 0 - - 0.0
23/06:00pm 13.4 14.0 11.8 90 0.9 ESE 0 4 0 2 - - 0.0
23/05:30pm 13.7 13.5 11.9 89 1.0 SSE 4 6 2 3 - - 0.0
23/05:00pm 14.4 14.8 12.6 89 1.0 SSE 2 7 1 4 - - 0.0
23/04:30pm 14.6 14.3 12.8 89 1.0 SSE 6 9 3 5 - - 0.0
23/04:00pm 15.2 15.0 13.1 87 1.2 S 6 9 3 5 - - 0.0
23/03:30pm 16.0 16.7 13.3 84 1.5 S 2 7 1 4 - - 0.0
23/03:00pm 16.0 16.2 13.1 83 1.6 SE 4 9 2 5 - - 0.0
23/02:30pm 15.6 15.4 13.1 85 1.4 S 6 9 3 5 - - 0.0
23/02:00pm 15.3 15.0 13.2 87 1.2 SSE 7 11 4 6 - - 0.0
23/01:30pm 16.6 16.8 12.9 79 2.1 S 4 7 2 4 - - 0.0
23/01:00pm 16.8 16.5 12.7 77 2.3 S 6 9 3 5 - - 0.0
23/12:30pm 16.9 17.1 13.0 78 2.2 SSW 4 7 2 4 - - 0.0
23/12:00pm 18.0 18.3 12.2 69 3.3 WNW 2 6 1 3 - - 0.0
23/11:30am 16.1 16.9 12.7 80 1.9 CALM 0 0 0 0 - - 0.0
23/11:00am 16.4 16.6 12.0 75 2.4 E 2 7 1 4 - - 0.0
23/10:30am 15.0 15.1 12.7 86 1.3 E 4 7 2 4 - - 0.0
23/10:00am 14.3 13.9 12.5 89 1.0 E 6 11 3 6 - - 0.0
23/09:30am 14.0 14.1 12.7 92 0.7 E 4 11 2 6 - - 0.0
23/09:00am 13.7 13.5 13.1 96 0.3 E 6 9 3 5 - - 1.2
23/08:30am 13.3 13.5 13.0 98 0.2 E 4 9 2 5 - - 1.2
23/08:00am 12.5 12.4 12.2 98 0.2 E 4 7 2 4 - - 1.2
23/07:30am 12.2 12.0 11.9 98 0.2 E 4 6 2 3 - - 1.2
23/07:00am 12.2 12.0 11.7 97 0.3 E 4 6 2 3 - - 1.2
23/06:30am 12.1 11.8 11.6 97 0.3 E 4 6 2 3 - - 1.2
23/06:00am 12.1 12.2 11.6 97 0.3 E 2 4 1 2 - - 1.2
23/05:30am 12.1 11.8 11.6 97 0.3 E 4 4 2 2 - - 1.2
23/05:00am 12.1 11.8 11.6 97 0.3 E 4 6 2 3 - - 1.2
23/04:30am 12.1 11.5 11.6 97 0.3 E 6 7 3 4 - - 1.2
23/04:00am 12.1 11.8 11.6 97 0.3 E 4 6 2 3 - - 1.2
23/03:30am 12.2 12.4 11.7 97 0.3 E 2 4 1 2 - - 1.2
23/03:00am 12.2 12.4 11.7 97 0.3 ESE 2 4 1 2 - - 1.2
23/02:30am 12.3 12.9 11.8 97 0.3 CALM 0 4 0 2 - - 1.2
23/02:00am 12.3 12.5 11.8 97 0.3 SSE 2 4 1 2 - - 1.2
23/01:30am 12.2 11.9 11.6 96 0.3 E 4 6 2 3 - - 1.2
23/01:00am 12.3 12.1 11.7 96 0.3 SSE 4 6 2 3 - - 1.0
23/12:30am 12.4 13.0 11.8 96 0.3 CALM 0 4 0 2 - - 0.8
23/12:00am 12.5 13.1 11.9 96 0.3 SW 0 4 0 2 - - 0.6
 
Date/Time
EST
Temp
°C
App
Temp
°C
Dew
Point
Rel
Hum
%
Delta-T
°C
Wind Press
QNH
hPa
Press
MSL
hPa
Rain
since 9 am
mm
Dir
 
Spd
km/h
Gust
km/h
Spd
kts
Gust
kts
22/11:30pm 12.6 12.8 12.0 96 0.3 SW 2 4 1 2 - - 0.2
22/11:00pm 12.9 13.2 12.1 95 0.4 WNW 2 4 1 2 - - 0.2
22/10:30pm 13.1 13.0 12.2 94 0.5 W 4 4 2 2 - - 0.2
22/10:00pm 13.2 13.4 11.9 92 0.7 W 2 6 1 3 - - 0.2
22/09:30pm 13.2 13.0 11.9 92 0.7 W 4 9 2 5 - - 0.2
22/09:00pm 13.3 12.8 12.0 92 0.7 W 6 9 3 5 - - 0.2
22/08:30pm 13.3 12.8 12.0 92 0.7 W 6 9 3 5 - - 0.2
22/08:00pm 13.5 13.0 12.2 92 0.7 W 6 9 3 5 - - 0.2
22/07:30pm 13.5 13.0 12.2 92 0.7 W 6 17 3 9 - - 0.2
22/07:00pm 13.6 13.0 12.3 92 0.7 WSW 7 15 4 8 - - 0.2
22/06:30pm 13.9 12.8 11.8 87 1.1 S 9 17 5 9 - - 0.2
22/06:00pm 14.5 13.3 11.7 83 1.5 S 9 17 5 9 - - 0.2
22/05:30pm 16.1 14.9 11.7 75 2.4 S 9 20 5 11 - - 0.0
22/05:00pm 17.8 16.9 10.7 63 3.9 S 6 7 3 4 - - 0.0
22/04:30pm 17.1 17.2 12.8 76 2.4 ESE 4 6 2 3 - - 0.0
22/04:00pm 17.4 17.4 13.5 78 2.2 ESE 6 7 3 4 - - 0.0
22/03:30pm 18.1 18.2 12.8 71 3.0 E 4 7 2 4 - - 0.0
22/03:00pm 19.5 20.0 11.5 60 4.5 CALM 0 0 0 0 - - 0.0
22/02:30pm 20.1 19.1 10.2 53 5.4 NW 6 11 3 6 - - 0.0
22/02:00pm 19.3 18.2 9.8 54 5.1 N 6 13 3 7 - - 0.0
22/01:30pm 19.7 18.9 9.6 52 5.5 NW 4 11 2 6 - - 0.0
22/01:00pm 18.6 17.3 9.1 54 5.1 NNW 6 11 3 6 - - 0.0
22/12:30pm 19.5 18.3 9.7 53 5.3 WNW 6 9 3 5 - - 0.0
22/12:00pm 17.5 16.4 8.4 55 4.7 SW 4 6 2 3 - - 0.0
22/11:30am 17.4 15.8 8.0 54 4.9 WNW 6 9 3 5 - - 0.0
22/11:00am 17.0 14.2 7.1 52 5.0 NW 11 20 6 11 - - 0.0
22/10:30am 16.5 13.6 6.6 52 5.0 NW 11 17 6 9 - - 0.0
22/10:00am 16.5 13.2 6.3 51 5.1 WNW 13 20 7 11 - - 0.0
22/09:30am 16.4 13.0 6.0 50 5.1 WNW 13 24 7 13 - - 0.0
22/09:00am 16.8 14.6 5.1 46 5.7 W 6 15 3 8 - - 0.0
22/08:30am 17.0 11.9 4.3 43 6.1 NW 20 39 11 21 - - 0.0
22/08:00am 17.0 11.8 3.7 41 6.3 NW 20 32 11 17 - - 0.0
22/07:30am 17.6 11.9 3.1 38 6.8 NW 22 35 12 19 - - 0.0
22/07:00am 17.6 12.5 3.1 38 6.8 NW 19 35 10 19 - - 0.0
22/06:30am 17.3 12.6 3.2 39 6.6 NW 17 26 9 14 - - 0.0
22/06:00am 17.4 11.3 3.0 38 6.7 NNW 24 37 13 20 - - 0.0
22/05:30am 16.6 11.4 3.7 42 6.1 NNW 20 33 11 18 - - 0.0
22/05:00am 16.7 11.5 3.4 41 6.2 NNW 20 33 11 18 - - 0.0
22/04:30am 16.5 11.4 3.9 43 6.0 NNW 20 33 11 18 - - 0.0
22/04:00am 16.5 11.4 3.9 43 6.0 NNW 20 33 11 18 - - 0.0
22/03:30am 16.1 10.6 3.9 44 5.8 NNW 22 35 12 19 - - 0.0
22/03:00am 16.1 10.6 3.9 44 5.8 NNW 22 35 12 19 - - 0.0
22/02:30am 16.2 10.3 3.9 44 5.8 NNW 24 33 13 18 - - 0.0
22/02:00am 16.0 10.1 3.8 44 5.7 NNW 24 37 13 20 - - 0.0
22/01:30am 15.7 10.2 3.8 45 5.6 NNW 22 37 12 20 - - 0.0
22/01:00am 15.5 10.0 3.9 46 5.5 NNW 22 35 12 19 - - 0.0
22/12:30am 15.4 9.6 4.2 47 5.3 NNW 24 37 13 20 - - 0.0
22/12:00am 15.2 9.8 4.6 49 5.0 NNW 22 33 12 18 - - 0.0
 
Date/Time
EST
Temp
°C
App
Temp
°C
Dew
Point
Rel
Hum
%
Delta-T
°C
Wind Press
QNH
hPa
Press
MSL
hPa
Rain
since 9 am
mm
Dir
 
Spd
km/h
Gust
km/h
Spd
kts
Gust
kts
21/11:30pm 15.3 9.9 4.7 49 5.1 NNW 22 35 12 19 - - 0.0
21/11:00pm 15.1 9.4 5.0 51 4.8 NNW 24 33 13 18 - - 0.0
21/10:30pm 15.0 9.7 5.2 52 4.7 NNW 22 33 12 18 - - 0.0
21/10:00pm 15.0 10.2 5.8 54 4.5 NNW 20 32 11 17 - - 0.0
21/09:30pm 15.0 10.3 6.0 55 4.4 NNW 20 30 11 16 - - 0.0
21/09:00pm 15.0 10.4 6.3 56 4.3 NNW 20 30 11 16 - - 0.0
21/08:30pm 15.1 10.7 6.4 56 4.3 NNW 19 30 10 16 - - 0.0
21/08:00pm 15.0 10.6 6.6 57 4.2 NNW 19 30 10 16 - - 0.0
21/07:30pm 15.1 11.2 6.9 58 4.1 NNW 17 30 9 16 - - 0.0
21/07:00pm 15.8 13.0 7.1 56 4.4 N 11 17 6 9 - - 0.0
21/06:30pm 15.5 14.2 7.5 59 4.0 NNE 4 7 2 4 - - 0.0
21/06:00pm 15.3 13.9 7.3 59 4.0 NE 4 6 2 3 - - 0.0
21/05:30pm 14.9 13.9 7.2 60 3.9 ENE 2 4 1 2 - - 0.0
21/05:00pm 15.1 13.8 7.6 61 3.8 NE 4 7 2 4 - - 0.0
21/04:30pm 15.6 14.5 8.4 62 3.7 ENE 4 7 2 4 - - 0.0
21/04:00pm 16.4 15.3 8.4 59 4.1 NE 4 7 2 4 - - 0.0
21/03:30pm 16.6 14.9 8.3 58 4.3 N 7 13 4 7 - - 0.0
21/03:00pm 17.2 15.8 8.9 58 4.4 N 6 9 3 5 - - 0.0
21/02:30pm 16.7 15.4 9.1 61 4.0 N 6 11 3 6 - - 0.0
21/02:00pm 16.6 15.1 9.3 62 3.9 N 7 13 4 7 - - 0.0
21/01:30pm 16.1 15.3 9.5 65 3.5 N 4 7 2 4 - - 0.0
21/01:00pm 15.7 14.7 8.7 63 3.6 NNW 4 11 2 6 - - 0.0
21/12:30pm 14.8 12.4 7.1 60 3.8 NNW 9 17 5 9 - - 0.0
21/12:00pm 14.4 12.5 7.5 63 3.5 N 7 15 4 8 - - 0.0
21/11:30am 13.6 10.7 6.5 62 3.5 NNW 11 20 6 11 - - 0.0
21/11:00am 13.5 10.1 5.9 60 3.7 NNW 13 26 7 14 - - 0.0
21/10:30am 12.5 8.6 5.2 61 3.4 NNW 15 30 8 16 - - 0.0
21/10:00am 11.8 7.8 4.8 62 3.3 NNW 15 24 8 13 - - 0.0
21/09:30am 10.8 5.9 4.3 64 3.0 NNW 19 28 10 15 - - 0.0
21/09:00am 10.2 5.6 3.9 65 2.8 NNW 17 28 9 15 - - 0.0
21/08:30am 10.0 5.0 3.5 64 2.9 N 19 30 10 16 - - 0.0
21/08:00am 9.4 4.7 3.4 66 2.7 N 17 28 9 15 - - 0.0
21/07:30am 8.6 3.9 3.0 68 2.4 N 17 28 9 15 - - 0.0
21/07:00am 8.5 3.8 2.9 68 2.4 N 17 26 9 14 - - 0.0
21/06:30am 8.2 3.5 3.1 70 2.2 N 17 26 9 14 - - 0.0
21/06:00am 8.4 3.3 3.1 69 2.3 NNW 19 28 10 15 - - 0.0
21/05:30am 8.4 3.3 3.1 69 2.3 N 19 28 10 15 - - 0.0
21/05:00am 8.5 3.8 3.1 69 2.3 N 17 28 9 15 - - 0.0
21/04:30am 8.4 3.7 3.1 69 2.3 N 17 30 9 16 - - 0.0
21/04:00am 8.7 4.0 3.1 68 2.4 N 17 26 9 14 - - 0.0
21/03:30am 8.7 3.6 3.1 68 2.4 N 19 30 10 16 - - 0.0
21/03:00am 8.9 3.8 3.1 67 2.5 N 19 26 10 14 - - 0.0
21/02:30am 9.0 4.7 3.0 66 2.6 N 15 26 8 14 - - 0.0
21/02:00am 9.1 4.8 3.1 66 2.6 NNW 15 24 8 13 - - 0.0
21/01:30am 9.2 4.5 3.2 66 2.6 NNW 17 24 9 13 - - 0.0
21/01:00am 9.4 4.7 3.4 66 2.7 NNW 17 26 9 14 - - 0.0
21/12:30am 9.7 5.0 3.2 64 2.9 NNW 17 24 9 13 - - 0.0
21/12:00am 10.0 5.7 3.3 63 3.0 NNW 15 22 8 12 - - 0.0
 
Date/Time
EST
Temp
°C
App
Temp
°C
Dew
Point
Rel
Hum
%
Delta-T
°C
Wind Press
QNH
hPa
Press
MSL
hPa
Rain
since 9 am
mm
Dir
 
Spd
km/h
Gust
km/h
Spd
kts
Gust
kts
20/11:30pm 10.2 5.5 3.3 62 3.1 NNW 17 22 9 12 - - 0.0
20/11:00pm 10.2 6.4 3.9 65 2.8 NNW 13 22 7 12 - - 0.0
20/10:30pm 10.1 6.8 4.5 68 2.6 NNW 11 19 6 10 - - 0.0
20/10:00pm 10.6 7.3 4.5 66 2.8 NW 11 19 6 10 - - 0.0
20/09:30pm 10.7 7.3 4.2 64 3.0 NW 11 15 6 8 - - 0.0
20/09:00pm 10.6 7.3 4.5 66 2.8 NW 11 13 6 7 - - 0.0
20/08:30pm 11.0 7.7 4.7 65 2.9 NW 11 15 6 8 - - 0.0
20/08:00pm 11.4 7.7 4.6 63 3.1 NW 13 17 7 9 - - 0.0
20/07:30pm 11.1 8.5 4.3 63 3.1 WNW 7 11 4 6 - - 0.0

Other Formats:

Comma delimited format used in spreadsheet applications
http://www.bom.gov.au/fwo/IDV60801/IDV60801.94930.axf

JavaScript Object Notation format (JSON) in row-major order
http://www.bom.gov.au/fwo/IDV60801/IDV60801.94930.json